Hidden Hills, GA

4:58 AM EST on February 25, 2018 (GMT -0500)
J R road | | Change Station

Elev 1053 ft 34.23 °N, 84.73 °W | Updated 3 seconds ago

Overcast
Overcast
66.0 °F
Feels Like 66.0 °F
N
0.0
Wind Variable Wind from NNW
Gusts 0.0 mph

Today
High -- | Low -- °F
--% Chance of Precip.
Yesterday
High -- | Low -- °F
Precip. -- in
Pressure 29.97 in
Visibility 10.0 miles
Clouds Few 2600 ft
Scattered Clouds 5500 ft
Overcast 8500 ft
Dew Point 60 °F
Humidity 82%
Rainfall 0.00 in
Snow Depth Not available.
7:12 AM 6:31 PM
Waxing Gibbous, 73% visible
METAR KVPC 250953Z AUTO VRB04KT 10SM FEW026 SCT055 OVC085 20/17 A3001 RMK AO2 SLP149 T02000167
Pressure 29.97 in
Visibility 10.0 miles
Clouds Few 2600 ft
Scattered Clouds 5500 ft
Overcast 8500 ft
Dew Point 60 °F
Humidity 82%
Rainfall 0.00 in
Snow Depth Not available.
7:12 AM 6:31 PM
Waxing Gibbous, 73% visible
METAR KVPC 250953Z AUTO VRB04KT 10SM FEW026 SCT055 OVC085 20/17 A3001 RMK AO2 SLP149 T02000167

Get Severe Weather Alerts

Thanks for signing up!

Be on the lookout for a verification email in your inbox.

You'll start receiving the daily forecast at 6 AM.

×

10-Day Weather Forecast

Almanac

Astronomy

Feb. 25, 2018 Rise Set
Actual Time
Civil Twilight
Nautical Twilight
Astronomical Twilight
Moon
Length of Visible Light
Length of Day
Tomorrow will be .
, % of the Moon is Illuminated

Today's Extremes

State Highs State Lows

Community

WunderPhotos

Category 6

Welcome to Category 6. This is the collective home for Weather Underground's featured writeups by Dr. Jeff Masters (right), Bob Henson (left), Chris Burt, and other regular contributors.

Nearby

Air Quality

  Air Quality AQ Index Pollutant
Not available.

Snow Depth

Station Depth Elevation

Earthquake Activity

City Distance Mag. Time & Date
Minimum magnitude displayed is 2.5.

Coastal Water Temperatures

Place Temperature

Stations

Nearby Weather Stations

Station Location Temp. Windchill Dew Point Humidity Wind Precip. Elev Updated Type
                   

Watches & Warnings

There are currently no watches in effect.